Time,TemperatureF,DewpointF,PressureIn,WindDirection,WindDirectionDegrees,WindSpeedMPH,WindSpeedGustMPH,Humidity,HourlyPrecipIn,Conditions,Clouds,dailyrainin,SoftwareType,DateUTC
2013-06-25 00:01:00,68.5,67.7,29.99,North,0,0.0,0.0,97,0.00,,,0.00,pywws,2013-06-25 04:01:00,
2013-06-25 00:03:00,68.5,67.7,29.99,North,0,0.0,0.0,97,0.00,,,0.00,pywws,2013-06-25 04:03:00,
2013-06-25 00:04:00,68.5,67.7,29.99,North,0,0.0,0.0,97,0.00,,,0.00,pywws,2013-06-25 04:04:00,
2013-06-25 00:05:00,68.5,67.7,29.99,North,0,0.0,0.0,97,0.00,,,0.00,pywws,2013-06-25 04:05:00,
2013-06-25 00:12:00,68.5,67.7,29.99,North,0,0.0,0.0,97,0.00,,,0.00,pywws,2013-06-25 04:12:00,
2013-06-25 00:18:00,68.5,67.7,29.99,North,0,0.0,0.0,97,0.00,,,0.00,pywws,2013-06-25 04:18:00,
2013-06-25 00:24:00,68.5,67.7,29.99,North,0,0.0,0.0,97,0.00,,,0.00,pywws,2013-06-25 04:24:00,
2013-06-25 00:29:00,68.5,67.7,29.99,North,0,0.0,0.0,97,0.00,,,0.00,pywws,2013-06-25 04:29:00,
2013-06-25 00:36:00,68.5,67.7,29.98,North,0,0.0,0.0,97,0.00,,,0.00,pywws,2013-06-25 04:36:00,
2013-06-25 00:42:00,68.5,67.7,29.99,North,0,0.0,0.0,97,0.00,,,0.00,pywws,2013-06-25 04:42:00,
2013-06-25 00:48:00,68.5,67.7,29.98,North,0,0.0,0.0,97,0.00,,,0.00,pywws,2013-06-25 04:48:00,
2013-06-25 00:55:00,68.4,67.5,29.98,North,0,0.0,0.0,97,0.00,,,0.00,pywws,2013-06-25 04:55:00,
2013-06-25 01:01:00,68.4,67.5,29.98,North,0,0.0,0.0,97,0.00,,,0.00,pywws,2013-06-25 05:01:00,
2013-06-25 01:07:00,68.2,67.3,29.98,North,0,0.0,0.0,97,0.00,,,0.00,pywws,2013-06-25 05:07:00,
2013-06-25 01:13:00,68.2,67.3,29.98,North,0,0.0,0.0,97,0.00,,,0.00,pywws,2013-06-25 05:13:00,
2013-06-25 01:19:00,68.0,67.1,29.98,North,0,0.0,0.0,97,0.00,,,0.00,pywws,2013-06-25 05:19:00,
2013-06-25 01:27:00,68.0,67.1,29.98,North,0,0.0,0.0,97,0.00,,,0.00,pywws,2013-06-25 05:27:00,
2013-06-25 01:32:00,68.0,67.1,29.98,North,0,0.0,0.0,97,0.00,,,0.00,pywws,2013-06-25 05:32:00,
2013-06-25 01:38:00,67.8,67.2,29.98,North,0,0.0,0.0,98,0.00,,,0.00,pywws,2013-06-25 05:38:00,
2013-06-25 01:44:00,67.6,67.1,29.97,East,90,0.0,0.0,98,0.00,,,0.00,pywws,2013-06-25 05:44:00,
2013-06-25 01:49:00,67.5,66.9,29.98,North,0,0.0,0.0,98,0.00,,,0.00,pywws,2013-06-25 05:49:00,
2013-06-25 01:58:00,67.5,66.9,29.98,North,0,0.0,0.0,98,0.00,,,0.00,pywws,2013-06-25 05:58:00,
2013-06-25 02:04:00,67.3,66.7,29.97,North,0,0.0,0.0,98,0.00,,,0.00,pywws,2013-06-25 06:04:00,
2013-06-25 02:09:00,67.1,66.5,29.97,North,0,0.0,0.0,98,0.00,,,0.00,pywws,2013-06-25 06:09:00,
2013-06-25 02:17:00,66.9,66.3,29.98,North,0,0.0,0.0,98,0.00,,,0.00,pywws,2013-06-25 06:17:00,
2013-06-25 02:23:00,66.9,66.3,29.98,North,0,0.0,0.0,98,0.00,,,0.00,pywws,2013-06-25 06:23:00,
2013-06-25 02:30:00,66.7,66.2,29.98,North,0,0.0,0.0,98,0.00,,,0.00,pywws,2013-06-25 06:30:00,
2013-06-25 02:36:00,66.6,66.0,29.98,North,0,0.0,0.0,98,0.00,,,0.00,pywws,2013-06-25 06:36:00,
2013-06-25 02:42:00,66.6,66.0,29.97,North,0,0.0,0.0,98,0.00,,,0.00,pywws,2013-06-25 06:42:00,
2013-06-25 02:50:00,66.4,65.8,29.97,North,0,0.0,0.0,98,0.00,,,0.00,pywws,2013-06-25 06:50:00,
2013-06-25 02:56:00,66.2,65.6,29.97,North,0,0.0,0.0,98,0.00,,,0.00,pywws,2013-06-25 06:56:00,
2013-06-25 03:01:00,66.4,65.8,29.97,North,0,0.0,0.0,98,0.00,,,0.00,pywws,2013-06-25 07:01:00,
2013-06-25 03:08:00,66.6,66.0,29.97,North,0,0.0,0.0,98,0.00,,,0.00,pywws,2013-06-25 07:08:00,
2013-06-25 03:14:00,66.9,66.3,29.96,North,0,0.0,0.0,98,0.00,,,0.00,pywws,2013-06-25 07:14:00,
2013-06-25 03:20:00,66.9,66.3,29.96,North,0,0.0,0.0,98,0.00,,,0.00,pywws,2013-06-25 07:20:00,
2013-06-25 03:26:00,67.1,66.5,29.96,North,0,0.0,0.0,98,0.00,,,0.00,pywws,2013-06-25 07:26:00,
2013-06-25 03:32:00,66.9,66.3,29.96,West,270,0.0,0.0,98,0.00,,,0.00,pywws,2013-06-25 07:32:00,
2013-06-25 03:38:00,67.1,66.5,29.95,West,270,0.0,0.0,98,0.00,,,0.00,pywws,2013-06-25 07:38:00,
2013-06-25 03:44:00,66.9,66.3,29.95,North,0,0.0,0.0,98,0.00,,,0.00,pywws,2013-06-25 07:44:00,
2013-06-25 03:49:00,66.9,66.3,29.96,North,0,0.0,0.0,98,0.00,,,0.00,pywws,2013-06-25 07:49:00,
2013-06-25 03:55:00,66.7,66.2,29.96,North,0,0.0,0.0,98,0.00,,,0.00,pywws,2013-06-25 07:55:00,
2013-06-25 04:00:00,66.7,66.2,29.95,North,0,0.0,0.0,98,0.00,,,0.00,pywws,2013-06-25 08:00:00,
2013-06-25 04:06:00,66.6,66.0,29.96,North,0,0.0,0.0,98,0.00,,,0.00,pywws,2013-06-25 08:06:00,
2013-06-25 04:12:00,66.4,65.8,29.96,North,0,0.0,0.0,98,0.00,,,0.00,pywws,2013-06-25 08:12:00,
2013-06-25 04:17:00,66.2,65.6,29.96,North,0,0.0,0.0,98,0.00,,,0.00,pywws,2013-06-25 08:17:00,
2013-06-25 04:23:00,66.2,65.6,29.96,North,0,0.0,0.0,98,0.00,,,0.00,pywws,2013-06-25 08:23:00,
2013-06-25 04:30:00,66.0,65.7,29.97,North,0,0.0,0.0,99,0.00,,,0.00,pywws,2013-06-25 08:30:00,
2013-06-25 04:38:00,65.8,65.6,29.96,North,0,0.0,0.0,99,0.00,,,0.00,pywws,2013-06-25 08:38:00,
2013-06-25 04:44:00,65.8,65.6,29.96,North,0,0.0,0.0,99,0.00,,,0.00,pywws,2013-06-25 08:44:00,
2013-06-25 04:49:00,66.2,65.6,29.96,North,0,0.0,0.0,98,0.00,,,0.00,pywws,2013-06-25 08:49:00,
2013-06-25 04:55:00,66.2,65.6,29.96,North,0,0.0,0.0,98,0.00,,,0.00,pywws,2013-06-25 08:55:00,
2013-06-25 05:02:00,66.2,65.6,29.96,North,0,0.0,0.0,98,0.00,,,0.00,pywws,2013-06-25 09:02:00,
2013-06-25 05:08:00,66.2,65.6,29.96,North,0,0.0,0.0,98,0.00,,,0.00,pywws,2013-06-25 09:08:00,
2013-06-25 05:13:00,66.4,66.1,29.96,North,0,0.0,0.0,99,0.00,,,0.00,pywws,2013-06-25 09:13:00,
2013-06-25 05:20:00,66.4,66.1,29.96,North,0,0.0,0.0,99,0.00,,,0.00,pywws,2013-06-25 09:20:00,
2013-06-25 05:28:00,66.6,66.3,29.96,North,0,0.0,0.0,99,0.00,,,0.00,pywws,2013-06-25 09:28:00,
2013-06-25 05:33:00,66.6,66.3,29.96,North,0,0.0,0.0,99,0.00,,,0.00,pywws,2013-06-25 09:33:00,
2013-06-25 05:39:00,66.6,66.3,29.96,North,0,0.0,0.0,99,0.00,,,0.00,pywws,2013-06-25 09:39:00,
2013-06-25 05:44:00,66.7,66.4,29.96,North,0,0.0,0.0,99,0.00,,,0.00,pywws,2013-06-25 09:44:00,
2013-06-25 05:50:00,66.7,66.4,29.96,North,0,0.0,0.0,99,0.00,,,0.00,pywws,2013-06-25 09:50:00,
2013-06-25 05:56:00,67.1,66.8,29.96,North,0,0.0,0.0,99,0.00,,,0.00,pywws,2013-06-25 09:56:00,
2013-06-25 06:01:00,67.5,67.2,29.96,North,0,0.0,0.0,99,0.00,,,0.00,pywws,2013-06-25 10:01:00,
2013-06-25 06:08:00,67.3,67.0,29.97,North,0,0.0,0.0,99,0.00,,,0.00,pywws,2013-06-25 10:08:00,
2013-06-25 06:13:00,67.5,67.2,29.96,North,0,0.0,0.0,99,0.00,,,0.00,pywws,2013-06-25 10:13:00,
2013-06-25 06:19:00,68.2,67.6,29.96,North,0,0.0,0.0,98,0.00,,,0.00,pywws,2013-06-25 10:19:00,
2013-06-25 06:24:00,68.0,67.4,29.96,North,0,0.0,0.0,98,0.00,,,0.00,pywws,2013-06-25 10:24:00,
2013-06-25 06:32:00,68.0,67.4,29.96,North,0,0.0,0.0,98,0.00,,,0.00,pywws,2013-06-25 10:32:00,
2013-06-25 06:37:00,68.2,67.6,29.96,North,0,0.0,0.0,98,0.00,,,0.00,pywws,2013-06-25 10:37:00,
2013-06-25 06:43:00,68.5,68.0,29.95,North,0,0.0,0.0,98,0.00,,,0.00,pywws,2013-06-25 10:43:00,
2013-06-25 06:48:00,69.8,68.9,29.95,North,0,0.0,0.0,97,0.00,,,0.00,pywws,2013-06-25 10:48:00,
2013-06-25 06:54:00,71.8,70.9,29.95,North,0,0.0,0.0,97,0.01,,,0.01,pywws,2013-06-25 10:54:00,
2013-06-25 07:00:00,72.9,72.0,29.95,North,0,0.0,0.0,97,0.01,,,0.01,pywws,2013-06-25 11:00:00,
2013-06-25 07:05:00,73.9,73.0,29.95,North,0,0.0,0.0,97,0.01,,,0.01,pywws,2013-06-25 11:05:00,
2013-06-25 07:11:00,73.9,72.4,29.95,North,0,0.0,0.0,95,0.01,,,0.01,pywws,2013-06-25 11:11:00,
2013-06-25 07:16:00,75.2,72.1,29.95,East,90,0.0,0.0,90,0.01,,,0.01,pywws,2013-06-25 11:16:00,
2013-06-25 07:22:00,77.0,71.4,29.95,West,270,0.0,0.0,83,0.01,,,0.01,pywws,2013-06-25 11:22:00,
2013-06-25 07:28:00,77.0,69.6,29.95,West,270,0.0,0.0,78,0.01,,,0.01,pywws,2013-06-25 11:28:00,
2013-06-25 07:33:00,77.2,69.4,29.95,West,270,0.0,0.0,77,0.01,,,0.01,pywws,2013-06-25 11:33:00,
2013-06-25 07:39:00,78.1,69.9,29.95,West,270,0.0,0.0,76,0.01,,,0.01,pywws,2013-06-25 11:39:00,
2013-06-25 07:44:00,78.6,70.0,29.95,West,270,0.0,0.0,75,0.01,,,0.01,pywws,2013-06-25 11:44:00,
2013-06-25 07:50:00,80.8,70.9,29.95,West,270,0.0,0.0,72,0.01,,,0.01,pywws,2013-06-25 11:50:00,
2013-06-25 07:56:00,80.6,69.9,29.95,West,270,0.0,0.0,70,0.00,,,0.01,pywws,2013-06-25 11:56:00,
2013-06-25 08:03:00,80.2,68.7,29.95,West,270,0.0,0.0,68,0.00,,,0.01,pywws,2013-06-25 12:03:00,
2013-06-25 08:08:00,82.0,70.8,29.95,West,270,0.0,0.0,69,0.00,,,0.01,pywws,2013-06-25 12:08:00,
2013-06-25 08:14:00,81.5,69.0,29.95,West,270,0.0,0.0,66,0.00,,,0.01,pywws,2013-06-25 12:14:00,
2013-06-25 08:20:00,80.1,67.2,29.95,West,270,0.0,0.0,65,0.00,,,0.01,pywws,2013-06-25 12:20:00,
2013-06-25 08:25:00,79.7,66.0,29.95,South,180,0.0,0.0,63,0.00,,,0.01,pywws,2013-06-25 12:25:00,
2013-06-25 08:31:00,81.3,68.9,29.94,West,270,0.0,0.0,66,0.00,,,0.01,pywws,2013-06-25 12:31:00,
2013-06-25 08:36:00,82.2,68.3,29.94,East,90,0.0,0.0,63,0.00,,,0.01,pywws,2013-06-25 12:36:00,
2013-06-25 08:42:00,80.4,67.1,29.94,South,180,0.0,0.0,64,0.00,,,0.01,pywws,2013-06-25 12:42:00,
2013-06-25 08:48:00,82.9,68.1,29.94,West,270,0.0,0.0,61,0.00,,,0.01,pywws,2013-06-25 12:48:00,
2013-06-25 08:53:00,83.5,69.1,29.94,West,270,0.0,0.0,62,0.00,,,0.01,pywws,2013-06-25 12:53:00,
2013-06-25 08:59:00,84.6,68.1,29.93,West,270,0.0,0.0,58,0.00,,,0.01,pywws,2013-06-25 12:59:00,
2013-06-25 09:04:00,86.2,69.1,29.93,West,270,0.0,0.0,57,0.00,,,0.01,pywws,2013-06-25 13:04:00,
2013-06-25 09:10:00,87.3,69.1,29.93,West,270,0.0,0.0,55,0.00,,,0.01,pywws,2013-06-25 13:10:00,
2013-06-25 09:16:00,86.2,66.5,29.93,SE,135,0.0,0.0,52,0.00,,,0.01,pywws,2013-06-25 13:16:00,
2013-06-25 09:21:00,86.2,67.6,29.94,West,270,0.0,0.0,54,0.00,,,0.01,pywws,2013-06-25 13:21:00,
2013-06-25 09:27:00,86.9,67.7,29.93,SE,135,0.0,1.6,53,0.00,,,0.01,pywws,2013-06-25 13:27:00,
2013-06-25 09:32:00,87.4,68.7,29.93,East,90,0.0,0.0,54,0.00,,,0.01,pywws,2013-06-25 13:32:00,
2013-06-25 09:38:00,85.3,66.2,29.93,West,270,0.0,0.0,53,0.00,,,0.01,pywws,2013-06-25 13:38:00,
2013-06-25 09:44:00,85.5,67.4,29.93,East,90,0.0,0.0,55,0.00,,,0.01,pywws,2013-06-25 13:44:00,
2013-06-25 09:49:00,83.8,64.3,29.93,West,270,0.0,0.0,52,0.00,,,0.01,pywws,2013-06-25 13:49:00,
2013-06-25 09:55:00,84.6,66.1,29.93,NW,315,0.0,2.2,54,0.00,,,0.01,pywws,2013-06-25 13:55:00,
2013-06-25 10:00:00,85.1,67.1,29.93,North,0,0.0,0.0,55,0.00,,,0.01,pywws,2013-06-25 14:00:00,
2013-06-25 10:06:00,86.0,67.4,29.94,South,180,0.0,0.0,54,0.00,,,0.01,pywws,2013-06-25 14:06:00,
2013-06-25 10:12:00,86.9,69.3,29.93,North,0,0.0,0.0,56,0.00,,,0.01,pywws,2013-06-25 14:12:00,
2013-06-25 10:17:00,84.6,66.1,29.94,North,0,0.0,0.7,54,0.00,,,0.01,pywws,2013-06-25 14:17:00,
2013-06-25 10:23:00,85.6,68.1,29.94,East,90,0.0,0.0,56,0.00,,,0.01,pywws,2013-06-25 14:23:00,
2013-06-25 10:28:00,85.6,67.1,29.94,NW,315,0.0,0.0,54,0.00,,,0.01,pywws,2013-06-25 14:28:00,
2013-06-25 10:34:00,86.5,68.4,29.94,West,270,0.0,0.0,55,0.00,,,0.01,pywws,2013-06-25 14:34:00,
2013-06-25 10:40:00,87.4,68.2,29.94,East,90,0.0,0.0,53,0.00,,,0.01,pywws,2013-06-25 14:40:00,
2013-06-25 10:45:00,86.4,68.3,29.94,West,270,0.0,0.0,55,0.00,,,0.01,pywws,2013-06-25 14:45:00,
2013-06-25 10:51:00,87.1,67.8,29.93,SE,135,0.0,0.0,53,0.00,,,0.01,pywws,2013-06-25 14:51:00,
2013-06-25 10:57:00,88.2,68.8,29.94,West,270,0.0,0.0,53,0.00,,,0.01,pywws,2013-06-25 14:57:00,
2013-06-25 11:03:00,88.0,67.5,29.94,West,270,0.0,0.0,51,0.00,,,0.01,pywws,2013-06-25 15:03:00,
2013-06-25 11:08:00,87.4,67.1,29.94,West,270,0.0,0.7,51,0.00,,,0.01,pywws,2013-06-25 15:08:00,
2013-06-25 11:14:00,88.5,69.2,29.94,West,270,0.0,1.6,53,0.00,,,0.01,pywws,2013-06-25 15:14:00,
2013-06-25 11:20:00,88.5,69.2,29.94,West,270,0.0,0.0,53,0.00,,,0.01,pywws,2013-06-25 15:20:00,
2013-06-25 11:25:00,90.1,70.1,29.94,East,90,0.0,0.0,52,0.00,,,0.01,pywws,2013-06-25 15:25:00,
2013-06-25 11:31:00,89.1,69.7,29.93,SE,135,0.0,0.0,53,0.00,,,0.01,pywws,2013-06-25 15:31:00,
2013-06-25 11:36:00,89.1,70.8,29.93,SE,135,0.0,0.7,55,0.00,,,0.01,pywws,2013-06-25 15:36:00,
2013-06-25 11:42:00,89.4,70.0,29.94,South,180,0.0,0.0,53,0.00,,,0.01,pywws,2013-06-25 15:42:00,
2013-06-25 11:48:00,90.0,70.5,29.93,West,270,0.0,0.0,53,0.00,,,0.01,pywws,2013-06-25 15:48:00,
2013-06-25 11:53:00,89.4,70.0,29.93,SE,135,0.0,0.0,53,0.00,,,0.01,pywws,2013-06-25 15:53:00,
2013-06-25 11:59:00,91.2,71.1,29.93,East,90,0.0,0.0,52,0.00,,,0.01,pywws,2013-06-25 15:59:00,
2013-06-25 12:04:00,88.7,67.6,29.93,West,270,0.0,0.0,50,0.00,,,0.01,pywws,2013-06-25 16:04:00,
2013-06-25 12:10:00,92.3,73.2,29.93,East,90,0.0,0.0,54,0.00,,,0.01,pywws,2013-06-25 16:10:00,
2013-06-25 12:16:00,90.7,70.0,29.92,West,270,0.0,0.7,51,0.00,,,0.01,pywws,2013-06-25 16:16:00,
2013-06-25 12:21:00,93.0,71.6,29.92,South,180,0.0,0.7,50,0.00,,,0.01,pywws,2013-06-25 16:21:00,
2013-06-25 12:27:00,92.8,72.0,29.93,West,270,0.0,2.2,51,0.00,,,0.01,pywws,2013-06-25 16:27:00,
2013-06-25 12:32:00,91.2,70.5,29.93,North,0,0.0,1.6,51,0.00,,,0.01,pywws,2013-06-25 16:32:00,
2013-06-25 12:38:00,91.4,70.1,29.93,West,270,0.0,1.6,50,0.00,,,0.01,pywws,2013-06-25 16:38:00,
2013-06-25 12:44:00,89.8,67.4,29.92,West,270,0.0,2.2,48,0.00,,,0.01,pywws,2013-06-25 16:44:00,
2013-06-25 12:49:00,91.0,69.8,29.92,East,90,0.0,0.0,50,0.00,,,0.01,pywws,2013-06-25 16:49:00,
2013-06-25 12:55:00,92.8,72.0,29.92,North,0,0.0,0.0,51,0.00,,,0.01,pywws,2013-06-25 16:55:00,
2013-06-25 13:00:00,93.4,70.7,29.91,North,0,0.0,0.0,48,0.00,,,0.01,pywws,2013-06-25 17:00:00,
2013-06-25 13:06:00,91.4,68.9,29.91,SW,225,0.0,0.0,48,0.00,,,0.01,pywws,2013-06-25 17:06:00,
2013-06-25 13:12:00,90.7,67.0,29.91,NW,315,0.0,0.0,46,0.00,,,0.01,pywws,2013-06-25 17:12:00,
2013-06-25 13:17:00,90.5,66.2,29.91,East,90,0.0,0.0,45,0.00,,,0.01,pywws,2013-06-25 17:17:00,
2013-06-25 13:23:00,92.5,70.5,29.91,East,90,0.0,0.0,49,0.00,,,0.01,pywws,2013-06-25 17:23:00,
2013-06-25 13:28:00,92.7,69.4,29.90,West,270,0.0,1.6,47,0.00,,,0.01,pywws,2013-06-25 17:28:00,
2013-06-25 13:34:00,92.5,68.6,29.90,South,180,0.0,0.0,46,0.00,,,0.01,pywws,2013-06-25 17:34:00,
2013-06-25 13:40:00,94.8,71.4,29.90,SW,225,0.0,0.0,47,0.00,,,0.01,pywws,2013-06-25 17:40:00,
2013-06-25 13:45:00,94.1,70.1,29.89,West,270,0.0,0.0,46,0.00,,,0.01,pywws,2013-06-25 17:45:00,
2013-06-25 13:51:00,92.5,68.6,29.89,West,270,0.7,4.5,46,0.00,,,0.01,pywws,2013-06-25 17:51:00,
2013-06-25 13:56:00,93.7,70.4,29.89,North,0,0.0,0.0,47,0.00,,,0.01,pywws,2013-06-25 17:56:00,
2013-06-25 14:02:00,94.8,70.1,29.88,South,180,0.0,0.0,45,0.00,,,0.01,pywws,2013-06-25 18:02:00,
2013-06-25 14:08:00,95.2,69.8,29.88,West,270,0.0,0.0,44,0.00,,,0.01,pywws,2013-06-25 18:08:00,
2013-06-25 14:13:00,95.4,69.9,29.88,NW,315,0.0,0.0,44,0.00,,,0.01,pywws,2013-06-25 18:13:00,
2013-06-25 14:19:00,96.1,70.6,29.88,West,270,0.0,0.0,44,0.00,,,0.01,pywws,2013-06-25 18:19:00,
2013-06-25 14:24:00,97.3,71.0,29.87,West,270,0.0,0.0,43,0.00,,,0.01,pywws,2013-06-25 18:24:00,
2013-06-25 14:30:00,96.1,70.6,29.87,South,180,0.0,0.0,44,0.00,,,0.01,pywws,2013-06-25 18:30:00,
2013-06-25 14:36:00,92.1,67.7,29.87,West,270,0.7,3.1,45,0.00,,,0.01,pywws,2013-06-25 18:36:00,
2013-06-25 14:41:00,94.1,70.7,29.86,West,270,0.0,0.0,47,0.00,,,0.01,pywws,2013-06-25 18:41:00,
2013-06-25 14:47:00,95.2,70.4,29.87,West,270,0.0,1.6,45,0.00,,,0.01,pywws,2013-06-25 18:47:00,
2013-06-25 14:52:00,93.6,70.3,29.86,East,90,0.0,0.7,47,0.00,,,0.01,pywws,2013-06-25 18:52:00,
2013-06-25 14:58:00,93.6,70.3,29.86,South,180,0.0,0.7,47,0.00,,,0.01,pywws,2013-06-25 18:58:00,
2013-06-25 15:04:00,93.6,69.0,29.86,West,270,0.0,0.0,45,0.00,,,0.01,pywws,2013-06-25 19:04:00,
2013-06-25 15:09:00,94.1,69.5,29.85,South,180,0.0,2.2,45,0.00,,,0.01,pywws,2013-06-25 19:09:00,
2013-06-25 15:15:00,94.8,70.8,29.85,North,0,0.0,0.7,46,0.00,,,0.01,pywws,2013-06-25 19:15:00,
2013-06-25 15:21:00,96.1,69.9,29.85,West,270,0.0,0.0,43,0.00,,,0.01,pywws,2013-06-25 19:21:00,
2013-06-25 15:26:00,94.1,68.8,29.85,West,270,0.0,0.0,44,0.00,,,0.01,pywws,2013-06-25 19:26:00,
2013-06-25 15:32:00,94.1,70.1,29.84,South,180,0.0,0.0,46,0.00,,,0.01,pywws,2013-06-25 19:32:00,
2013-06-25 15:37:00,94.6,69.9,29.84,North,0,0.0,0.7,45,0.00,,,0.01,pywws,2013-06-25 19:37:00,
2013-06-25 15:43:00,93.6,69.0,29.84,NE,45,0.0,2.2,45,0.00,,,0.01,pywws,2013-06-25 19:43:00,
2013-06-25 15:48:00,92.1,68.9,29.83,NW,315,0.7,5.4,47,0.00,,,0.01,pywws,2013-06-25 19:48:00,
2013-06-25 15:54:00,91.9,69.4,29.83,South,180,0.0,0.7,48,0.00,,,0.01,pywws,2013-06-25 19:54:00,
2013-06-25 16:00:00,92.7,68.8,29.83,East,90,0.0,0.7,46,0.00,,,0.01,pywws,2013-06-25 20:00:00,
2013-06-25 16:05:00,94.1,70.1,29.83,West,270,0.0,0.0,46,0.00,,,0.01,pywws,2013-06-25 20:05:00,
2013-06-25 16:11:00,93.6,70.9,29.83,South,180,0.0,0.0,48,0.00,,,0.01,pywws,2013-06-25 20:11:00,
2013-06-25 16:16:00,92.7,69.4,29.82,SE,135,0.0,0.0,47,0.00,,,0.01,pywws,2013-06-25 20:16:00,
2013-06-25 16:22:00,92.8,69.6,29.82,SE,135,0.0,0.7,47,0.00,,,0.01,pywws,2013-06-25 20:22:00,
2013-06-25 16:28:00,93.0,69.8,29.82,SE,135,0.0,2.2,47,0.00,,,0.01,pywws,2013-06-25 20:28:00,
2013-06-25 16:33:00,92.5,69.9,29.81,SW,225,0.0,0.7,48,0.00,,,0.01,pywws,2013-06-25 20:33:00,
2013-06-25 16:39:00,91.8,69.2,29.81,West,270,0.0,0.0,48,0.00,,,0.01,pywws,2013-06-25 20:39:00,
2013-06-25 16:44:00,91.9,70.0,29.81,SW,225,0.0,0.0,49,0.00,,,0.01,pywws,2013-06-25 20:44:00,
2013-06-25 16:50:00,91.2,68.7,29.82,NW,315,0.0,0.7,48,0.00,,,0.01,pywws,2013-06-25 20:50:00,
2013-06-25 16:56:00,91.6,69.7,29.82,North,0,0.0,0.0,49,0.00,,,0.01,pywws,2013-06-25 20:56:00,
2013-06-25 17:01:00,89.4,68.3,29.82,East,90,0.0,0.0,50,0.00,,,0.01,pywws,2013-06-25 21:01:00,
2013-06-25 17:07:00,89.6,67.9,29.82,West,270,0.0,0.0,49,0.00,,,0.01,pywws,2013-06-25 21:07:00,
2013-06-25 17:13:00,88.3,68.4,29.82,South,180,0.0,0.0,52,0.00,,,0.01,pywws,2013-06-25 21:13:00,
2013-06-25 17:18:00,88.2,68.8,29.82,SW,225,0.0,0.0,53,0.00,,,0.01,pywws,2013-06-25 21:18:00,
2013-06-25 17:24:00,88.3,69.0,29.82,SW,225,0.0,0.0,53,0.00,,,0.01,pywws,2013-06-25 21:24:00,
2013-06-25 17:29:00,87.4,69.3,29.82,West,270,0.0,0.0,55,0.00,,,0.01,pywws,2013-06-25 21:29:00,
2013-06-25 17:35:00,87.6,69.4,29.81,NE,45,0.0,0.0,55,0.00,,,0.01,pywws,2013-06-25 21:35:00,
2013-06-25 17:40:00,87.8,70.1,29.80,West,270,0.0,0.0,56,0.00,,,0.01,pywws,2013-06-25 21:40:00,
2013-06-25 17:46:00,87.6,70.5,29.80,West,270,0.0,0.0,57,0.00,,,0.01,pywws,2013-06-25 21:46:00,
2013-06-25 17:52:00,86.9,70.3,29.80,West,270,0.0,0.0,58,0.00,,,0.01,pywws,2013-06-25 21:52:00,
2013-06-25 17:57:00,86.2,69.1,29.79,SW,225,0.0,0.0,57,0.00,,,0.01,pywws,2013-06-25 21:57:00,
2013-06-25 18:03:00,86.0,69.5,29.79,West,270,0.0,0.0,58,0.00,,,0.01,pywws,2013-06-25 22:03:00,
2013-06-25 18:09:00,85.8,70.3,29.79,West,270,0.0,0.0,60,0.00,,,0.01,pywws,2013-06-25 22:09:00,
2013-06-25 18:14:00,85.5,70.4,29.80,West,270,0.0,0.0,61,0.00,,,0.01,pywws,2013-06-25 22:14:00,
2013-06-25 18:20:00,85.8,70.8,29.80,North,0,0.0,0.0,61,0.00,,,0.01,pywws,2013-06-25 22:20:00,
2013-06-25 18:25:00,86.0,71.0,29.80,North,0,0.0,0.0,61,0.00,,,0.01,pywws,2013-06-25 22:25:00,
2013-06-25 18:31:00,85.5,71.4,29.80,South,180,0.0,0.7,63,0.00,,,0.01,pywws,2013-06-25 22:31:00,
2013-06-25 18:37:00,84.6,71.0,29.80,East,90,0.0,0.0,64,0.00,,,0.01,pywws,2013-06-25 22:37:00,
2013-06-25 18:42:00,84.2,70.7,29.80,West,270,0.0,0.0,64,0.00,,,0.01,pywws,2013-06-25 22:42:00,
2013-06-25 18:48:00,83.8,71.2,29.80,West,270,0.0,0.0,66,0.00,,,0.01,pywws,2013-06-25 22:48:00,
2013-06-25 18:53:00,83.7,71.1,29.80,SE,135,0.0,0.0,66,0.00,,,0.01,pywws,2013-06-25 22:53:00,
2013-06-25 18:59:00,83.5,70.9,29.79,SE,135,0.0,0.0,66,0.00,,,0.01,pywws,2013-06-25 22:59:00,
2013-06-25 19:04:00,83.3,70.7,29.79,SW,225,0.0,0.0,66,0.00,,,0.01,pywws,2013-06-25 23:04:00,
2013-06-25 19:10:00,82.9,70.4,29.79,SE,135,0.0,0.0,66,0.00,,,0.01,pywws,2013-06-25 23:10:00,
2013-06-25 19:16:00,82.9,70.4,29.79,West,270,0.0,0.0,66,0.00,,,0.01,pywws,2013-06-25 23:16:00,
2013-06-25 19:21:00,82.8,70.7,29.79,East,90,0.0,0.0,67,0.00,,,0.01,pywws,2013-06-25 23:21:00,
2013-06-25 19:27:00,82.8,70.2,29.79,South,180,0.0,1.6,66,0.00,,,0.01,pywws,2013-06-25 23:27:00,
2013-06-25 19:32:00,82.0,68.6,29.80,West,270,0.0,0.0,64,0.00,,,0.01,pywws,2013-06-25 23:32:00,
2013-06-25 19:38:00,81.3,68.9,29.80,South,180,0.0,0.0,66,0.00,,,0.01,pywws,2013-06-25 23:38:00,
2013-06-25 19:44:00,80.6,69.0,29.81,West,270,0.0,0.0,68,0.00,,,0.01,pywws,2013-06-25 23:44:00,
2013-06-25 19:49:00,79.3,69.5,29.81,SW,225,0.0,0.7,72,0.00,,,0.01,pywws,2013-06-25 23:49:00,
2013-06-25 19:55:00,77.0,68.1,29.81,SW,225,0.7,2.2,74,0.01,,,0.02,pywws,2013-06-25 23:55:00,
2013-06-25 20:01:00,74.3,68.4,29.80,North,0,0.0,0.0,82,0.06,,,0.07,pywws,2013-06-26 00:01:00,
2013-06-25 20:06:00,73.2,68.4,29.80,South,180,0.0,0.0,85,0.06,,,0.07,pywws,2013-06-26 00:06:00,
2013-06-25 20:12:00,72.9,68.8,29.79,West,270,0.0,0.0,87,0.06,,,0.07,pywws,2013-06-26 00:12:00,
2013-06-25 20:17:00,72.5,68.7,29.79,NE,45,0.0,0.0,88,0.06,,,0.07,pywws,2013-06-26 00:17:00,
2013-06-25 20:26:00,72.0,68.5,29.79,North,0,0.0,0.0,89,0.06,,,0.07,pywws,2013-06-26 00:26:00,
2013-06-25 20:32:00,71.8,68.7,29.79,West,270,0.0,0.0,90,0.06,,,0.07,pywws,2013-06-26 00:32:00,
2013-06-25 20:37:00,71.4,68.6,29.79,West,270,0.0,0.0,91,0.06,,,0.07,pywws,2013-06-26 00:37:00,
2013-06-25 20:43:00,71.2,68.5,29.80,North,0,0.0,0.0,91,0.06,,,0.07,pywws,2013-06-26 00:43:00,
2013-06-25 20:48:00,71.1,68.6,29.80,North,0,0.0,0.0,92,0.06,,,0.07,pywws,2013-06-26 00:48:00,
2013-06-25 20:54:00,70.9,68.4,29.80,North,0,0.0,0.0,92,0.06,,,0.07,pywws,2013-06-26 00:54:00,
2013-06-25 21:00:00,70.9,68.4,29.80,West,270,0.0,0.0,92,0.01,,,0.07,pywws,2013-06-26 01:00:00,
2013-06-25 21:05:00,70.9,68.4,29.80,West,270,0.0,0.0,92,0.00,,,0.07,pywws,2013-06-26 01:05:00,
2013-06-25 21:11:00,70.9,68.8,29.80,West,270,0.0,0.0,93,0.00,,,0.07,pywws,2013-06-26 01:11:00,
2013-06-25 21:16:00,70.9,68.8,29.80,West,270,0.0,0.0,93,0.00,,,0.07,pywws,2013-06-26 01:16:00,
2013-06-25 21:24:00,70.9,68.8,29.80,West,270,0.0,0.0,93,0.00,,,0.07,pywws,2013-06-26 01:24:00,
2013-06-25 21:30:00,70.7,68.6,29.80,West,270,0.0,0.0,93,0.00,,,0.07,pywws,2013-06-26 01:30:00,
2013-06-25 21:36:00,70.7,68.6,29.80,West,270,0.0,0.0,93,0.00,,,0.07,pywws,2013-06-26 01:36:00,
2013-06-25 21:44:00,70.3,68.5,29.80,North,0,0.0,0.0,94,0.00,,,0.07,pywws,2013-06-26 01:44:00,
2013-06-25 21:50:00,70.3,68.5,29.80,North,0,0.0,0.0,94,0.00,,,0.07,pywws,2013-06-26 01:50:00,
2013-06-25 21:56:00,70.3,68.5,29.80,North,0,0.0,0.0,94,0.00,,,0.07,pywws,2013-06-26 01:56:00,
2013-06-25 22:03:00,70.2,68.3,29.81,North,0,0.0,0.0,94,0.00,,,0.07,pywws,2013-06-26 02:03:00,
2013-06-25 22:08:00,70.3,68.8,29.81,North,0,0.0,0.0,95,0.00,,,0.07,pywws,2013-06-26 02:08:00,
2013-06-25 22:15:00,70.2,68.7,29.81,North,0,0.0,0.0,95,0.00,,,0.07,pywws,2013-06-26 02:15:00,
2013-06-25 22:21:00,70.0,68.5,29.81,North,0,0.0,0.0,95,0.00,,,0.07,pywws,2013-06-26 02:21:00,
2013-06-25 22:26:00,70.0,68.5,29.81,North,0,0.0,0.0,95,0.00,,,0.07,pywws,2013-06-26 02:26:00,
2013-06-25 22:32:00,70.0,68.5,29.82,North,0,0.0,0.0,95,0.00,,,0.07,pywws,2013-06-26 02:32:00,
2013-06-25 22:37:00,69.8,68.3,29.81,North,0,0.0,0.0,95,0.00,,,0.07,pywws,2013-06-26 02:37:00,
2013-06-25 22:43:00,70.0,68.5,29.82,North,0,0.0,0.0,95,0.00,,,0.07,pywws,2013-06-26 02:43:00,
2013-06-25 22:48:00,70.0,68.5,29.81,North,0,0.0,0.0,95,0.00,,,0.07,pywws,2013-06-26 02:48:00,
2013-06-25 22:54:00,69.8,68.3,29.82,North,0,0.0,0.0,95,0.00,,,0.07,pywws,2013-06-26 02:54:00,
2013-06-25 23:02:00,69.6,68.7,29.82,North,0,0.0,0.0,97,0.00,,,0.07,pywws,2013-06-26 03:02:00,
2013-06-25 23:09:00,69.6,68.7,29.82,North,0,0.0,0.0,97,0.00,,,0.07,pywws,2013-06-26 03:09:00,
2013-06-25 23:17:00,69.4,68.5,29.82,North,0,0.0,0.0,97,0.00,,,0.07,pywws,2013-06-26 03:17:00,
2013-06-25 23:23:00,69.4,68.5,29.82,North,0,0.0,0.0,97,0.00,,,0.07,pywws,2013-06-26 03:23:00,
2013-06-25 23:29:00,69.4,68.5,29.81,North,0,0.0,0.0,97,0.00,,,0.07,pywws,2013-06-26 03:29:00,
2013-06-25 23:35:00,69.4,68.5,29.81,North,0,0.0,0.0,97,0.00,,,0.07,pywws,2013-06-26 03:35:00,
2013-06-25 23:43:00,69.6,68.7,29.81,North,0,0.0,0.0,97,0.00,,,0.07,pywws,2013-06-26 03:43:00,
2013-06-25 23:51:00,69.4,68.5,29.82,North,0,0.0,0.0,97,0.00,,,0.07,pywws,2013-06-26 03:51:00,